Time;durP1;ratioP1;P1;durP2;ratioP2;P2;SDS_P1;SDS_P2;PMS_P1;PMS_P2;Temp;Humidity;BMP_temperature;BMP_pressure;BME280_temperature;BME280_humidity;BME280_pressure;Samples;Min_cycle;Max_cycle;Signal;HPM_P1;HPM_P2
2023/10/29 00:00:04;;;;;;;2.08;1.00;;;16.90;72.10;;;;;;5115124;28;20180;-60
2023/10/29 00:02:29;;;;;;;1.20;1.10;;;16.90;72.10;;;;;;5115140;28;20173;-60
2023/10/29 00:04:55;;;;;;;1.70;0.90;;;16.90;72.10;;;;;;5114517;28;20283;-60
2023/10/29 00:07:21;;;;;;;1.25;0.90;;;16.90;72.10;;;;;;5114785;28;20635;-60
2023/10/29 00:09:46;;;;;;;2.20;1.00;;;16.90;72.20;;;;;;5115214;28;20169;-60
2023/10/29 00:12:12;;;;;;;1.20;0.95;;;16.90;72.10;;;;;;5118341;27;20369;-60
2023/10/29 00:14:37;;;;;;;2.75;1.13;;;16.90;72.20;;;;;;5134927;27;20653;-60
2023/10/29 00:17:03;;;;;;;1.92;1.20;;;16.80;72.00;;;;;;5135066;27;20259;-60
2023/10/29 00:19:28;;;;;;;3.55;1.20;;;16.80;72.00;;;;;;5134592;27;20267;-61
2023/10/29 00:21:54;;;;;;;2.80;1.25;;;16.80;72.00;;;;;;5135381;27;20192;-60
2023/10/29 00:24:19;;;;;;;2.03;1.08;;;16.90;72.20;;;;;;5134608;27;20175;-60
2023/10/29 00:26:45;;;;;;;2.65;1.35;;;16.80;72.10;;;;;;5134543;27;20173;-60
2023/10/29 00:29:10;;;;;;;3.08;1.08;;;16.80;72.10;;;;;;5134618;27;20634;-60
2023/10/29 00:31:36;;;;;;;1.50;1.05;;;16.80;72.20;;;;;;5134373;27;20173;-61
2023/10/29 00:34:03;;;;;;;3.00;1.15;;;16.80;72.20;;;;;;5134000;27;20245;-60
2023/10/29 00:36:28;;;;;;;1.63;0.88;;;16.80;72.10;;;;;;5135067;27;20172;-60
2023/10/29 00:38:55;;;;;;;1.13;0.95;;;16.80;72.10;;;;;;5135056;27;20532;-60
2023/10/29 00:41:21;;;;;;;1.13;0.82;;;16.80;72.20;;;;;;5133905;27;20176;-61
2023/10/29 00:43:46;;;;;;;1.45;1.17;;;16.80;72.20;;;;;;5133983;27;20180;-61
2023/10/29 00:46:12;;;;;;;1.08;0.68;;;16.80;72.20;;;;;;5134573;27;20172;-61
2023/10/29 00:48:38;;;;;;;1.05;0.80;;;16.80;72.30;;;;;;5098091;28;20279;-60
2023/10/29 00:51:03;;;;;;;1.02;0.93;;;16.80;72.20;;;;;;5092225;28;20177;-60
2023/10/29 00:53:29;;;;;;;1.45;0.90;;;16.80;72.30;;;;;;5072112;28;20195;-61
2023/10/29 00:55:54;;;;;;;2.10;0.98;;;16.80;72.20;;;;;;5072457;28;20239;-60
2023/10/29 00:58:20;;;;;;;1.27;1.08;;;16.80;72.20;;;;;;5073351;28;20540;-60
2023/10/29 01:00:45;;;;;;;1.02;0.77;;;16.80;72.30;;;;;;5072384;28;20177;-60
2023/10/29 01:03:11;;;;;;;1.42;0.88;;;16.70;72.20;;;;;;5085349;28;20189;-60
2023/10/29 01:05:37;;;;;;;1.30;0.90;;;16.80;72.30;;;;;;5093239;28;20227;-61
2023/10/29 01:08:05;;;;;;;1.92;1.15;;;16.80;72.30;;;;;;5072726;28;20323;-60
2023/10/29 01:10:31;;;;;;;1.17;0.80;;;16.80;72.30;;;;;;5072527;28;20170;-61
2023/10/29 01:12:57;;;;;;;0.90;0.90;;;16.70;72.20;;;;;;5073108;28;20233;-61
2023/10/29 01:15:22;;;;;;;2.40;1.20;;;16.80;72.30;;;;;;5071698;28;20629;-61
2023/10/29 01:17:48;;;;;;;0.98;0.80;;;16.80;72.40;;;;;;5071289;28;20174;-61
2023/10/29 01:20:13;;;;;;;1.50;1.05;;;16.70;72.20;;;;;;5072033;28;20181;-60
2023/10/29 01:22:39;;;;;;;1.45;0.75;;;16.70;72.30;;;;;;5072603;28;20171;-61
2023/10/29 01:25:08;;;;;;;1.25;1.15;;;16.70;72.40;;;;;;5072852;28;20231;-61
2023/10/29 01:27:33;;;;;;;1.73;0.80;;;16.70;72.40;;;;;;5072963;28;20170;-61
2023/10/29 01:29:59;;;;;;;1.00;1.00;;;16.70;72.40;;;;;;5071871;28;20208;-61
2023/10/29 01:32:24;;;;;;;1.08;0.95;;;16.70;72.40;;;;;;5073089;28;20174;-61
2023/10/29 01:34:50;;;;;;;2.13;1.23;;;16.70;72.40;;;;;;5072755;28;20525;-60
2023/10/29 01:37:16;;;;;;;2.10;0.77;;;16.70;72.40;;;;;;5072060;28;20224;-61
2023/10/29 01:39:41;;;;;;;1.70;0.70;;;16.70;72.40;;;;;;5071873;28;20266;-58
2023/10/29 01:42:07;;;;;;;2.28;0.93;;;16.70;72.50;;;;;;5072258;28;20201;-61
2023/10/29 01:44:32;;;;;;;1.10;1.00;;;16.70;72.40;;;;;;5071721;28;20170;-60
2023/10/29 01:46:58;;;;;;;1.83;0.90;;;16.70;72.50;;;;;;5072562;28;20221;-61
2023/10/29 01:49:23;;;;;;;2.05;0.90;;;16.70;72.50;;;;;;5112907;28;20319;-60
2023/10/29 01:51:49;;;;;;;1.25;0.90;;;16.70;72.50;;;;;;5112794;28;20275;-61
2023/10/29 01:54:15;;;;;;;1.15;0.80;;;16.70;72.50;;;;;;5113258;28;20628;-61
2023/10/29 01:56:41;;;;;;;1.13;0.90;;;16.70;72.50;;;;;;5119152;28;20196;-60
2023/10/29 01:59:07;;;;;;;0.88;0.85;;;16.70;72.50;;;;;;5119723;28;20700;-60
2023/10/29 02:01:32;;;;;;;1.42;1.02;;;16.70;72.50;;;;;;5120104;28;20169;-60
2023/10/29 02:03:58;;;;;;;1.00;0.90;;;16.70;72.50;;;;;;5118869;28;20289;-60
2023/10/29 02:06:23;;;;;;;0.68;0.68;;;16.70;72.50;;;;;;5119877;28;20193;-60
2023/10/29 02:08:49;;;;;;;1.63;0.95;;;16.70;72.60;;;;;;5119168;28;20172;-60
2023/10/29 02:11:14;;;;;;;1.30;0.90;;;16.60;72.50;;;;;;5118158;28;20214;-60
2023/10/29 02:13:40;;;;;;;1.52;0.80;;;16.60;72.50;;;;;;5119391;28;20200;-60
2023/10/29 02:16:06;;;;;;;0.88;0.85;;;16.70;72.60;;;;;;5119081;28;20179;-60
2023/10/29 02:18:31;;;;;;;0.93;0.80;;;16.60;72.60;;;;;;5118646;28;20176;-60
2023/10/29 02:20:57;;;;;;;1.67;0.90;;;16.70;72.60;;;;;;5119697;28;20169;-61
2023/10/29 02:23:22;;;;;;;2.03;1.00;;;16.60;72.50;;;;;;5119440;28;20198;-60
2023/10/29 02:25:48;;;;;;;1.48;0.68;;;16.70;72.60;;;;;;5118858;28;20222;-60
2023/10/29 02:28:13;;;;;;;1.27;1.00;;;16.60;72.50;;;;;;5119363;28;20181;-60
2023/10/29 02:30:39;;;;;;;0.80;0.77;;;16.60;72.50;;;;;;5119846;28;20169;-60
2023/10/29 02:33:04;;;;;;;0.85;0.70;;;16.70;72.70;;;;;;5118662;28;20201;-60
2023/10/29 02:35:30;;;;;;;1.52;0.90;;;16.60;72.60;;;;;;5119649;28;20173;-61
2023/10/29 02:37:55;;;;;;;1.58;0.80;;;16.60;72.50;;;;;;5125486;27;20172;-60
2023/10/29 02:40:21;;;;;;;2.05;1.00;;;16.60;72.60;;;;;;5139173;27;20627;-60
2023/10/29 02:42:46;;;;;;;1.40;1.00;;;16.60;72.60;;;;;;5140354;27;20175;-60
2023/10/29 02:45:12;;;;;;;1.05;0.80;;;16.60;72.60;;;;;;5139877;27;20240;-60
2023/10/29 02:47:37;;;;;;;1.77;1.02;;;16.60;72.60;;;;;;5138467;27;20627;-60
2023/10/29 02:50:03;;;;;;;0.80;0.80;;;16.60;72.60;;;;;;5139064;27;20206;-60
2023/10/29 02:52:29;;;;;;;0.95;0.68;;;16.60;72.60;;;;;;5140017;27;20172;-61
2023/10/29 02:54:56;;;;;;;1.20;0.85;;;16.60;72.60;;;;;;5139106;27;20549;-61
2023/10/29 02:57:25;;;;;;;1.75;0.95;;;16.60;72.70;;;;;;5139786;27;20213;-60
2023/10/29 02:59:51;;;;;;;1.48;0.75;;;16.60;72.70;;;;;;5121592;27;20203;-61
2023/10/29 03:02:16;;;;;;;0.65;0.65;;;16.60;72.70;;;;;;5138981;27;20188;-60
2023/10/29 03:04:42;;;;;;;1.77;0.90;;;16.60;72.70;;;;;;5139982;27;20200;-60
2023/10/29 03:07:08;;;;;;;0.82;0.82;;;16.60;72.70;;;;;;5136593;27;20164;-60
2023/10/29 03:09:34;;;;;;;1.88;0.63;;;16.60;72.80;;;;;;5136791;27;20181;-60
2023/10/29 03:12:00;;;;;;;0.88;0.70;;;16.60;72.70;;;;;;5136455;27;20175;-60
2023/10/29 03:14:25;;;;;;;1.73;0.93;;;16.60;72.70;;;;;;5135480;27;20211;-60
2023/10/29 03:16:51;;;;;;;0.70;0.60;;;16.60;72.80;;;;;;5135979;27;20642;-61
2023/10/29 03:19:16;;;;;;;1.00;0.75;;;16.60;72.70;;;;;;5136481;27;20652;-60
2023/10/29 03:21:42;;;;;;;1.55;0.90;;;16.60;72.80;;;;;;5136077;27;20650;-60
2023/10/29 03:24:07;;;;;;;1.13;0.70;;;16.60;72.70;;;;;;5135769;27;20172;-60
2023/10/29 03:26:33;;;;;;;0.80;0.63;;;16.60;72.80;;;;;;5136366;27;20175;-60
2023/10/29 03:28:59;;;;;;;0.63;0.60;;;16.60;72.80;;;;;;5135326;27;20172;-59
2023/10/29 03:31:24;;;;;;;1.55;0.60;;;16.60;72.70;;;;;;5135786;27;20650;-59
2023/10/29 03:33:50;;;;;;;0.80;0.80;;;16.60;72.80;;;;;;5135991;27;20215;-60
2023/10/29 03:36:15;;;;;;;1.15;0.77;;;16.50;72.80;;;;;;5135026;27;20205;-60
2023/10/29 03:38:41;;;;;;;1.15;0.77;;;16.50;72.80;;;;;;5136311;27;20181;-60
2023/10/29 03:41:07;;;;;;;1.40;1.02;;;16.50;72.80;;;;;;5135220;27;20245;-60
2023/10/29 03:43:32;;;;;;;2.25;0.80;;;16.50;72.90;;;;;;5116300;27;20661;-60
2023/10/29 03:45:59;;;;;;;0.73;0.63;;;16.50;72.80;;;;;;5135161;27;20624;-60
2023/10/29 03:48:25;;;;;;;0.77;0.50;;;16.50;72.80;;;;;;5135466;27;20678;-60
2023/10/29 03:50:50;;;;;;;1.02;0.60;;;16.60;72.90;;;;;;5134371;27;20169;-60
2023/10/29 03:53:16;;;;;;;0.98;0.70;;;16.50;72.90;;;;;;5134682;27;20245;-60
2023/10/29 03:55:41;;;;;;;1.25;0.85;;;16.50;72.80;;;;;;5135479;27;20210;-60
2023/10/29 03:58:07;;;;;;;0.80;0.77;;;16.50;72.80;;;;;;5134782;27;20225;-60
2023/10/29 04:00:32;;;;;;;0.88;0.52;;;16.50;72.90;;;;;;5135784;27;20169;-60
2023/10/29 04:02:58;;;;;;;0.82;0.70;;;16.50;72.90;;;;;;5135483;27;20243;-60
2023/10/29 04:05:23;;;;;;;0.85;0.80;;;16.50;72.80;;;;;;5134663;27;20703;-60
2023/10/29 04:07:49;;;;;;;0.80;0.80;;;16.50;72.90;;;;;;5135761;27;20172;-60
2023/10/29 04:10:15;;;;;;;1.10;0.80;;;16.50;72.80;;;;;;5135342;27;20172;-61
2023/10/29 04:12:40;;;;;;;0.80;0.70;;;16.50;72.90;;;;;;5134654;27;20179;-60
2023/10/29 04:15:06;;;;;;;0.90;0.68;;;16.50;72.80;;;;;;5135017;27;20188;-60
2023/10/29 04:17:32;;;;;;;1.67;1.08;;;16.50;73.00;;;;;;5133747;27;20534;-60
2023/10/29 04:19:58;;;;;;;0.60;0.60;;;16.50;72.80;;;;;;5133444;27;20647;-60
2023/10/29 04:22:23;;;;;;;1.70;0.80;;;16.50;72.80;;;;;;5135234;27;20620;-60
2023/10/29 04:24:49;;;;;;;0.85;0.70;;;16.50;73.00;;;;;;5134576;27;20173;-60
2023/10/29 04:27:15;;;;;;;0.90;0.65;;;16.50;72.90;;;;;;5134617;27;20221;-60
2023/10/29 04:29:40;;;;;;;1.60;0.77;;;16.50;72.90;;;;;;5135217;27;20168;-60
2023/10/29 04:32:06;;;;;;;0.98;0.80;;;16.40;72.90;;;;;;5133803;27;20176;-59
2023/10/29 04:34:32;;;;;;;1.15;0.73;;;16.50;72.90;;;;;;5135111;27;20704;-60
2023/10/29 04:36:57;;;;;;;0.88;0.60;;;16.50;72.90;;;;;;5134838;27;20260;-60
2023/10/29 04:39:24;;;;;;;0.68;0.52;;;16.50;72.90;;;;;;5134295;27;20263;-60
2023/10/29 04:41:49;;;;;;;1.20;0.90;;;16.50;72.90;;;;;;5135194;27;20172;-60
2023/10/29 04:44:16;;;;;;;0.73;0.70;;;16.50;72.90;;;;;;5134672;27;20512;-60
2023/10/29 04:46:41;;;;;;;1.25;0.77;;;16.50;72.90;;;;;;5134218;27;20226;-60
2023/10/29 04:49:07;;;;;;;0.70;0.70;;;16.50;73.10;;;;;;5134334;27;20686;-61
2023/10/29 04:51:32;;;;;;;1.13;0.60;;;16.50;72.90;;;;;;5133928;27;20188;-61
2023/10/29 04:53:59;;;;;;;0.80;0.80;;;16.40;72.90;;;;;;5132654;27;20586;-60
2023/10/29 04:56:25;;;;;;;1.30;0.70;;;16.40;73.00;;;;;;5134623;27;20177;-61
2023/10/29 04:58:51;;;;;;;0.82;0.60;;;16.50;73.00;;;;;;5134531;27;20172;-60
2023/10/29 05:01:17;;;;;;;1.55;0.73;;;16.40;72.90;;;;;;5132990;27;20209;-60
2023/10/29 05:03:43;;;;;;;1.73;0.75;;;16.50;73.20;;;;;;5134563;27;20246;-61
2023/10/29 05:06:20;;;;;;;0.77;0.77;;;16.40;73.00;;;;;;5134301;27;20172;-60
2023/10/29 05:08:45;;;;;;;0.70;0.57;;;16.40;73.00;;;;;;5133870;27;20545;-60
2023/10/29 05:11:11;;;;;;;0.60;0.60;;;16.40;73.00;;;;;;5133962;27;20173;-60
2023/10/29 05:13:36;;;;;;;1.25;0.52;;;16.40;73.10;;;;;;5133417;27;20614;-61
2023/10/29 05:16:04;;;;;;;0.70;0.60;;;16.40;73.00;;;;;;5134142;27;20309;-60
2023/10/29 05:18:30;;;;;;;0.65;0.60;;;16.40;72.90;;;;;;5116433;27;20180;-60
2023/10/29 05:20:55;;;;;;;0.80;0.80;;;16.40;73.00;;;;;;5133529;27;21002;-60
2023/10/29 05:23:20;;;;;;;0.95;0.80;;;16.40;73.10;;;;;;5133762;27;20168;-60
2023/10/29 05:25:46;;;;;;;0.70;0.70;;;16.40;73.00;;;;;;5134051;27;20164;-60
2023/10/29 05:28:12;;;;;;;1.23;0.75;;;16.40;73.10;;;;;;5132784;27;20229;-60
2023/10/29 05:30:38;;;;;;;1.27;0.70;;;16.40;73.10;;;;;;5133953;27;20168;-60
2023/10/29 05:33:04;;;;;;;0.60;0.60;;;16.40;73.10;;;;;;5133665;27;20225;-60
2023/10/29 05:35:30;;;;;;;1.42;0.73;;;16.40;73.20;;;;;;5133490;27;20212;-60
2023/10/29 05:37:55;;;;;;;1.35;0.70;;;16.40;73.20;;;;;;5134139;27;20256;-60
2023/10/29 05:40:21;;;;;;;0.60;0.60;;;16.40;73.20;;;;;;5133802;27;20638;-60
2023/10/29 05:42:46;;;;;;;1.08;0.60;;;16.40;73.20;;;;;;5133134;27;20631;-60
2023/10/29 05:45:12;;;;;;;0.75;0.52;;;16.40;73.20;;;;;;5133513;27;20180;-60
2023/10/29 05:47:37;;;;;;;0.93;0.88;;;16.40;73.30;;;;;;5121820;27;20217;-60
2023/10/29 05:50:04;;;;;;;0.85;0.70;;;16.40;73.20;;;;;;5112395;28;20180;-60
2023/10/29 05:52:30;;;;;;;1.05;0.60;;;16.40;73.40;;;;;;5113392;28;20172;-60
2023/10/29 05:54:56;;;;;;;1.60;0.90;;;16.40;73.10;;;;;;5113188;28;20181;-60
2023/10/29 05:57:21;;;;;;;0.82;0.70;;;16.40;73.20;;;;;;5112035;28;20192;-60
2023/10/29 05:59:47;;;;;;;0.60;0.60;;;16.40;73.30;;;;;;5112647;28;20177;-60
2023/10/29 06:02:12;;;;;;;1.00;0.73;;;16.40;73.30;;;;;;5112784;28;20169;-59
2023/10/29 06:04:38;;;;;;;0.50;0.50;;;16.40;73.40;;;;;;5112372;28;20169;-60
2023/10/29 06:07:04;;;;;;;0.60;0.60;;;16.40;73.20;;;;;;5112110;28;20584;-60
2023/10/29 06:09:29;;;;;;;1.00;0.60;;;16.40;73.30;;;;;;5112992;28;20176;-60
2023/10/29 06:11:55;;;;;;;0.80;0.77;;;16.40;73.20;;;;;;5112328;28;20627;-61
2023/10/29 06:14:22;;;;;;;0.85;0.73;;;16.40;73.20;;;;;;5112636;28;20300;-60
2023/10/29 06:16:48;;;;;;;0.60;0.60;;;16.30;73.20;;;;;;5113283;28;20180;-60
2023/10/29 06:19:13;;;;;;;0.88;0.73;;;16.40;73.30;;;;;;5112233;28;20170;-60
2023/10/29 06:21:39;;;;;;;0.82;0.57;;;16.40;73.30;;;;;;5113015;28;20643;-60
2023/10/29 06:24:06;;;;;;;0.45;0.45;;;16.30;73.10;;;;;;5112014;28;20687;-60
2023/10/29 06:26:31;;;;;;;0.80;0.70;;;16.30;73.20;;;;;;5112840;28;20181;-60
2023/10/29 06:28:57;;;;;;;1.20;0.60;;;16.40;73.30;;;;;;5112907;28;20177;-61
2023/10/29 06:31:33;;;;;;;0.70;0.70;;;16.40;73.10;;;;;;5111776;28;20185;-60
2023/10/29 06:33:59;;;;;;;0.88;0.50;;;16.40;73.20;;;;;;5111828;28;20216;-59
2023/10/29 06:36:24;;;;;;;0.70;0.70;;;16.30;73.20;;;;;;5112556;28;20173;-60
2023/10/29 06:38:50;;;;;;;0.60;0.60;;;16.40;73.30;;;;;;5111511;28;20181;-60
2023/10/29 06:41:15;;;;;;;0.85;0.60;;;16.30;73.10;;;;;;5112432;28;20207;-60
2023/10/29 06:43:41;;;;;;;0.70;0.70;;;16.30;73.20;;;;;;5116859;28;20529;-60
2023/10/29 06:46:06;;;;;;;1.17;0.60;;;16.30;73.00;;;;;;5115902;28;20260;-60
2023/10/29 06:48:32;;;;;;;0.63;0.63;;;16.30;73.00;;;;;;5116451;28;20278;-60
2023/10/29 06:50:57;;;;;;;2.17;0.70;;;16.40;73.20;;;;;;5116506;28;20643;-60
2023/10/29 06:53:23;;;;;;;0.82;0.70;;;16.30;72.90;;;;;;5115600;28;20742;-60
2023/10/29 06:55:48;;;;;;;1.27;0.70;;;16.30;73.20;;;;;;5116421;28;20311;-60
2023/10/29 06:58:14;;;;;;;0.80;0.60;;;16.30;72.80;;;;;;5116084;28;20283;-60
2023/10/29 07:00:40;;;;;;;0.85;0.68;;;16.30;73.00;;;;;;5115686;28;20252;-59
2023/10/29 07:03:05;;;;;;;1.08;0.65;;;16.30;73.00;;;;;;5116308;28;20169;-59
2023/10/29 07:05:31;;;;;;;1.23;0.75;;;16.30;73.90;;;;;;5116448;28;20229;-60
2023/10/29 07:07:57;;;;;;;0.60;0.60;;;16.30;73.10;;;;;;5115438;28;20177;-60
2023/10/29 07:10:23;;;;;;;0.60;0.60;;;16.20;73.00;;;;;;5116016;28;20581;-60
2023/10/29 07:12:49;;;;;;;0.60;0.60;;;16.30;73.10;;;;;;5115539;28;20647;-60
2023/10/29 07:15:14;;;;;;;1.08;0.82;;;16.30;73.10;;;;;;5114701;28;20268;-60
2023/10/29 07:17:40;;;;;;;0.73;0.60;;;16.30;73.10;;;;;;5116070;28;20181;-60
2023/10/29 07:20:06;;;;;;;0.55;0.55;;;16.30;73.40;;;;;;5115090;28;20180;-59
2023/10/29 07:22:32;;;;;;;0.50;0.50;;;16.30;73.10;;;;;;5115325;28;20199;-59
2023/10/29 07:24:57;;;;;;;0.68;0.68;;;16.30;73.10;;;;;;5115699;28;20627;-59
2023/10/29 07:27:23;;;;;;;2.42;0.70;;;16.30;73.30;;;;;;5115092;28;20173;-60
2023/10/29 07:29:48;;;;;;;1.65;0.70;;;16.30;73.30;;;;;;5115429;28;20252;-59
2023/10/29 07:32:14;;;;;;;0.95;0.47;;;16.40;73.30;;;;;;5115628;28;20259;-59
2023/10/29 07:34:40;;;;;;;1.42;1.00;;;16.40;73.20;;;;;;5114961;28;20209;-59
2023/10/29 07:37:05;;;;;;;0.60;0.60;;;16.40;73.30;;;;;;5115470;28;20221;-59
2023/10/29 07:39:31;;;;;;;0.70;0.70;;;16.40;73.30;;;;;;5115563;28;20177;-59
2023/10/29 07:41:56;;;;;;;0.73;0.50;;;16.40;73.10;;;;;;5114525;28;20646;-59
2023/10/29 07:44:25;;;;;;;0.75;0.63;;;16.50;72.80;;;;;;5114601;28;20184;-59
2023/10/29 07:46:50;;;;;;;1.75;0.75;;;16.50;72.60;;;;;;5114235;28;20260;-60
2023/10/29 07:49:16;;;;;;;0.50;0.50;;;16.60;72.60;;;;;;5113435;28;20354;-60
2023/10/29 07:51:43;;;;;;;0.50;0.50;;;16.60;72.40;;;;;;5115124;28;20201;-60
2023/10/29 07:54:08;;;;;;;1.02;0.70;;;16.60;72.50;;;;;;5114426;28;20274;-59
2023/10/29 07:56:34;;;;;;;0.60;0.60;;;16.60;72.40;;;;;;5114515;28;20173;-60
2023/10/29 07:58:59;;;;;;;2.17;0.70;;;16.70;72.20;;;;;;5114935;28;20263;-59
2023/10/29 08:01:25;;;;;;;0.70;0.70;;;16.70;72.30;;;;;;5115165;28;20169;-59
2023/10/29 08:03:51;;;;;;;2.15;0.63;;;16.80;72.40;;;;;;5114425;28;20226;-60
2023/10/29 08:06:16;;;;;;;3.10;0.68;;;16.80;72.20;;;;;;5114774;28;20195;-60
2023/10/29 08:08:42;;;;;;;1.60;0.70;;;16.80;72.20;;;;;;5114986;28;20177;-60
2023/10/29 08:11:19;;;;;;;1.13;0.52;;;16.80;72.10;;;;;;5114162;28;20602;-60
2023/10/29 08:13:45;;;;;;;1.60;0.70;;;16.70;72.40;;;;;;5115167;28;20212;-61
2023/10/29 08:16:11;;;;;;;1.73;0.73;;;16.70;72.70;;;;;;5114769;28;20599;-60
2023/10/29 08:18:37;;;;;;;2.88;0.63;;;16.60;72.90;;;;;;5114261;28;20521;-60
2023/10/29 08:21:03;;;;;;;2.03;0.68;;;16.60;73.20;;;;;;5114354;28;20688;-60
2023/10/29 08:23:29;;;;;;;0.88;0.57;;;16.60;73.60;;;;;;5114610;28;20193;-60
2023/10/29 08:25:55;;;;;;;1.23;0.75;;;16.60;73.60;;;;;;5114732;28;20173;-60
2023/10/29 08:28:20;;;;;;;2.17;0.90;;;16.60;73.50;;;;;;5114103;28;20183;-59
2023/10/29 08:30:49;;;;;;;2.20;0.75;;;16.60;73.60;;;;;;5114434;28;20168;-60
2023/10/29 08:33:14;;;;;;;1.58;0.80;;;16.60;73.60;;;;;;5114311;28;20193;-60
2023/10/29 08:35:46;;;;;;;3.08;1.00;;;16.60;74.30;;;;;;5114559;28;20219;-60
2023/10/29 08:38:12;;;;;;;1.58;0.73;;;16.60;73.40;;;;;;5113608;28;20173;-59
2023/10/29 08:40:37;;;;;;;2.92;1.00;;;16.70;73.30;;;;;;5114378;28;20184;-59
2023/10/29 08:43:06;;;;;;;3.47;0.88;;;16.70;73.00;;;;;;5114101;28;20177;-60
2023/10/29 08:45:32;;;;;;;0.98;0.60;;;16.70;72.80;;;;;;5113808;28;20216;-60
2023/10/29 08:47:57;;;;;;;2.13;0.70;;;16.80;72.70;;;;;;5095844;28;20256;-59
2023/10/29 08:50:23;;;;;;;0.93;0.60;;;16.80;72.70;;;;;;5113942;28;20694;-60
2023/10/29 08:52:48;;;;;;;1.00;0.80;;;17.00;72.80;;;;;;5113400;28;20237;-60
2023/10/29 08:55:15;;;;;;;1.92;1.17;;;16.80;72.70;;;;;;5113826;28;20260;-60
2023/10/29 08:57:40;;;;;;;1.08;0.82;;;16.80;72.80;;;;;;5114235;28;20549;-60
2023/10/29 09:00:08;;;;;;;4.78;1.23;;;16.80;72.70;;;;;;5112936;28;20169;-59
2023/10/29 09:02:34;;;;;;;1.88;0.65;;;16.80;72.60;;;;;;5113951;28;20682;-60
2023/10/29 09:04:59;;;;;;;1.77;0.77;;;16.80;72.50;;;;;;5113047;28;20260;-59
2023/10/29 09:07:25;;;;;;;2.38;1.08;;;16.90;72.50;;;;;;5113102;28;20260;-60
2023/10/29 09:09:52;;;;;;;3.60;1.00;;;16.90;72.40;;;;;;5114001;28;20624;-60
2023/10/29 09:12:17;;;;;;;2.25;0.88;;;16.90;72.40;;;;;;5113682;28;20208;-60
2023/10/29 09:14:43;;;;;;;1.40;0.85;;;17.00;72.30;;;;;;5113080;28;20237;-60
2023/10/29 09:17:10;;;;;;;1.00;0.63;;;17.00;72.30;;;;;;5113443;28;20179;-59
2023/10/29 09:19:35;;;;;;;3.33;0.90;;;17.00;72.40;;;;;;5113630;28;20256;-60
2023/10/29 09:22:01;;;;;;;1.25;1.02;;;17.10;72.30;;;;;;5112602;28;20259;-60
2023/10/29 09:24:26;;;;;;;1.73;0.68;;;17.10;72.40;;;;;;5113645;28;20180;-60
2023/10/29 09:26:53;;;;;;;3.13;0.85;;;17.10;72.40;;;;;;5112941;28;20193;-60
2023/10/29 09:29:19;;;;;;;2.67;0.90;;;17.00;72.40;;;;;;5113107;28;20227;-60
2023/10/29 09:31:44;;;;;;;2.92;0.90;;;17.10;72.50;;;;;;5113546;28;20173;-59
2023/10/29 09:34:10;;;;;;;2.92;1.05;;;17.10;72.50;;;;;;5112161;28;20265;-59
2023/10/29 09:36:35;;;;;;;2.17;0.90;;;17.00;72.50;;;;;;5113723;28;20251;-60
2023/10/29 09:39:01;;;;;;;3.22;0.98;;;17.00;72.50;;;;;;5113070;28;20591;-59
2023/10/29 09:41:27;;;;;;;2.85;1.35;;;17.00;72.60;;;;;;5112715;28;20177;-60
2023/10/29 09:43:53;;;;;;;1.70;0.90;;;17.00;72.50;;;;;;5112990;28;20183;-60
2023/10/29 09:46:19;;;;;;;1.48;0.82;;;17.00;72.50;;;;;;5112834;28;20283;-59
2023/10/29 09:48:45;;;;;;;1.35;0.70;;;17.00;72.60;;;;;;5112327;28;20255;-60
2023/10/29 09:51:10;;;;;;;3.10;0.98;;;17.00;72.40;;;;;;5094940;28;20601;-60
2023/10/29 09:53:36;;;;;;;2.20;0.70;;;17.00;72.50;;;;;;5113319;28;20216;-60
2023/10/29 09:56:03;;;;;;;1.52;0.80;;;17.00;72.60;;;;;;5112291;28;20177;-60
2023/10/29 09:58:28;;;;;;;1.80;0.80;;;16.90;72.60;;;;;;5113231;28;20542;-60
2023/10/29 10:00:54;;;;;;;1.88;1.10;;;17.00;72.70;;;;;;5113206;28;20173;-59
2023/10/29 10:03:20;;;;;;;2.20;0.80;;;17.00;72.70;;;;;;5112230;28;20173;-60
2023/10/29 10:05:46;;;;;;;2.08;0.73;;;16.90;72.70;;;;;;5113360;28;20173;-60
2023/10/29 10:08:11;;;;;;;1.35;0.60;;;16.90;72.60;;;;;;5112379;28;20183;-60
2023/10/29 10:10:41;;;;;;;2.72;0.95;;;16.90;72.60;;;;;;5112345;28;20628;-60
2023/10/29 10:13:06;;;;;;;2.25;1.05;;;17.00;72.60;;;;;;5112655;28;20728;-60
2023/10/29 10:15:32;;;;;;;1.85;1.13;;;16.90;72.50;;;;;;5113182;28;20185;-60
2023/10/29 10:17:59;;;;;;;2.15;1.05;;;17.00;72.30;;;;;;5116141;28;20169;-60
2023/10/29 10:20:24;;;;;;;1.38;0.70;;;17.00;72.30;;;;;;5117212;28;20636;-60
2023/10/29 10:22:57;;;;;;;3.90;1.02;;;17.00;72.30;;;;;;5117252;28;20176;-60
2023/10/29 10:25:23;;;;;;;1.85;1.13;;;17.00;72.20;;;;;;5116096;28;20628;-60
2023/10/29 10:27:53;;;;;;;1.15;0.57;;;17.00;72.20;;;;;;5117043;28;20551;-60
2023/10/29 10:30:29;;;;;;;1.65;0.90;;;16.90;72.10;;;;;;5116015;28;20249;-60
2023/10/29 10:33:20;;;;;;;2.55;1.05;;;16.90;73.10;;;;;;5117004;28;20173;-59
2023/10/29 10:35:47;;;;;;;1.55;0.80;;;16.90;72.40;;;;;;5117065;28;20268;-60
2023/10/29 10:38:14;;;;;;;0.75;0.57;;;16.90;72.60;;;;;;5115904;28;20204;-60
2023/10/29 10:40:39;;;;;;;4.50;1.35;;;16.80;72.50;;;;;;5116844;28;20639;-60
2023/10/29 10:43:06;;;;;;;2.97;0.65;;;16.80;72.60;;;;;;5116825;28;20248;-60
2023/10/29 10:45:32;;;;;;;1.25;0.57;;;16.80;72.50;;;;;;5116220;28;20596;-60
2023/10/29 10:48:04;;;;;;;1.73;0.73;;;16.80;72.80;;;;;;5116631;28;20708;-60
2023/10/29 10:50:29;;;;;;;1.67;0.73;;;16.80;72.90;;;;;;5116855;28;20314;-60
2023/10/29 10:52:56;;;;;;;3.38;1.13;;;16.70;72.60;;;;;;5097756;28;20260;-60
2023/10/29 10:55:22;;;;;;;2.03;0.68;;;16.70;72.90;;;;;;5116117;28;20238;-60
2023/10/29 10:57:49;;;;;;;5.07;1.08;;;16.80;72.90;;;;;;5081811;28;20573;-60
2023/10/29 11:00:16;;;;;;;1.95;0.80;;;16.70;72.80;;;;;;5115612;28;20180;-60
2023/10/29 11:02:42;;;;;;;2.40;0.80;;;16.80;73.00;;;;;;5116599;28;20870;-60
2023/10/29 11:05:12;;;;;;;3.67;0.80;;;16.80;72.60;;;;;;5098167;28;20747;-59
2023/10/29 11:07:39;;;;;;;1.55;0.80;;;16.80;72.20;;;;;;5115053;28;20256;-60
2023/10/29 11:10:05;;;;;;;1.90;1.00;;;16.80;72.40;;;;;;5115406;28;20251;-60
2023/10/29 11:12:34;;;;;;;2.55;1.00;;;16.80;72.40;;;;;;5115680;28;20173;-60
2023/10/29 11:15:19;;;;;;;1.05;0.75;;;16.80;72.60;;;;;;5115873;28;20262;-60
2023/10/29 11:18:05;;;;;;;2.17;0.93;;;16.70;72.70;;;;;;5116250;28;20523;-59
2023/10/29 11:20:37;;;;;;;1.60;0.80;;;16.80;73.00;;;;;;5115641;28;20160;-60
2023/10/29 11:23:07;;;;;;;2.72;1.00;;;16.70;73.30;;;;;;5115522;28;20165;-61
2023/10/29 11:25:32;;;;;;;2.70;1.23;;;16.70;72.80;;;;;;5116250;28;20189;-60
2023/10/29 11:27:58;;;;;;;4.72;1.05;;;16.80;72.90;;;;;;5113927;28;20267;-60
2023/10/29 11:30:27;;;;;;;4.10;1.20;;;16.80;73.00;;;;;;5097708;28;20639;-59
2023/10/29 11:33:21;;;;;;;5.18;1.65;;;16.70;74.10;;;;;;5115490;28;20188;-70
2023/10/29 11:35:46;;;;;;;4.82;1.33;;;16.80;73.80;;;;;;5112915;27;20185;-70
2023/10/29 11:38:31;;;;;;;4.32;1.45;;;16.80;73.60;;;;;;5124941;27;20188;-69
2023/10/29 11:40:57;;;;;;;11.98;1.30;;;16.90;73.00;;;;;;5134362;27;20176;-69
2023/10/29 11:43:23;;;;;;;6.78;1.60;;;16.90;73.30;;;;;;5134441;27;20176;-69
2023/10/29 11:45:56;;;;;;;4.85;1.38;;;16.90;73.40;;;;;;5136112;27;20172;-68
2023/10/29 11:48:21;;;;;;;3.00;1.33;;;16.90;73.50;;;;;;5134462;27;20295;-68
2023/10/29 11:51:06;;;;;;;5.30;1.55;;;16.90;73.60;;;;;;5135549;27;20761;-68
2023/10/29 11:53:31;;;;;;;5.40;1.70;;;17.00;73.70;;;;;;5135854;27;20200;-69
2023/10/29 11:55:59;;;;;;;4.13;1.23;;;17.00;73.70;;;;;;5134889;27;20179;-69
2023/10/29 11:58:25;;;;;;;4.85;1.08;;;17.00;73.60;;;;;;5117746;27;20173;-68
2023/10/29 12:00:51;;;;;;;4.70;1.40;;;17.00;73.70;;;;;;5135717;27;20175;-69
2023/10/29 12:03:20;;;;;;;7.93;1.45;;;17.00;73.70;;;;;;5116651;27;20168;-69
2023/10/29 12:05:49;;;;;;;5.40;1.30;;;17.10;73.90;;;;;;5135634;27;20180;-68
2023/10/29 12:08:15;;;;;;;3.08;0.95;;;17.10;73.90;;;;;;5116689;27;20217;-67
2023/10/29 12:10:50;;;;;;;2.63;1.08;;;17.10;73.90;;;;;;5134645;27;20173;-67
2023/10/29 12:13:18;;;;;;;3.33;1.08;;;17.10;73.80;;;;;;5135077;27;20200;-67
2023/10/29 12:16:00;;;;;;;9.35;1.65;;;17.10;73.60;;;;;;5134689;27;20634;-75
2023/10/29 12:18:26;;;;;;;6.18;1.60;;;17.20;73.40;;;;;;5118787;27;20638;-70
2023/10/29 12:21:03;;;;;;;4.90;1.38;;;17.20;73.10;;;;;;5135228;27;20183;-66
2023/10/29 12:23:28;;;;;;;8.82;1.55;;;17.30;72.80;;;;;;5134589;27;20703;-66
2023/10/29 12:25:55;;;;;;;8.70;1.77;;;17.40;72.90;;;;;;5116698;27;20168;-66
2023/10/29 12:28:20;;;;;;;3.22;1.10;;;17.30;72.80;;;;;;5116593;27;20180;-67
2023/10/29 12:30:47;;;;;;;7.65;1.55;;;17.20;72.90;;;;;;5133984;27;20527;-66
2023/10/29 12:33:20;;;;;;;6.40;1.60;;;17.20;73.40;;;;;;5134923;27;20196;-66
2023/10/29 12:35:47;;;;;;;6.53;1.80;;;17.30;73.70;;;;;;5134951;27;20186;-68
2023/10/29 12:38:13;;;;;;;5.70;1.60;;;17.20;73.60;;;;;;5134048;27;20252;-69
2023/10/29 12:40:59;;;;;;;4.20;1.40;;;17.30;73.80;;;;;;5133792;27;20218;-71
2023/10/29 12:43:38;;;;;;;6.40;1.48;;;17.40;73.70;;;;;;5119574;27;20172;-70